Time;durP1;ratioP1;P1;durP2;ratioP2;P2;SDS_P1;SDS_P2;PMS_P1;PMS_P2;Temp;Humidity;BMP_temperature;BMP_pressure;BME280_temperature;BME280_humidity;BME280_pressure;Samples;Min_cycle;Max_cycle;Signal;HPM_P1;HPM_P2
2022/07/16 00:02:04;;;;;;;3.40;2.47;;;8.70;99.90;;;;;;5000181;28;20489;-67
2022/07/16 00:04:31;;;;;;;3.42;2.50;;;8.80;99.90;;;;;;5002338;28;20030;-67
2022/07/16 00:06:58;;;;;;;4.18;2.33;;;8.80;99.90;;;;;;5009826;28;20041;-68
2022/07/16 00:09:26;;;;;;;4.35;2.30;;;8.80;99.90;;;;;;5002596;28;20026;-68
2022/07/16 00:11:53;;;;;;;5.38;2.10;;;8.90;99.90;;;;;;5002229;28;20109;-67
2022/07/16 00:14:20;;;;;;;5.75;2.60;;;9.00;99.90;;;;;;5010199;28;20073;-67
2022/07/16 00:16:47;;;;;;;3.42;2.20;;;9.00;99.90;;;;;;5000612;28;20022;-67
2022/07/16 00:19:21;;;;;;;2.75;1.98;;;9.10;99.90;;;;;;5001497;28;20176;-68
2022/07/16 00:21:53;;;;;;;6.05;2.28;;;9.10;99.90;;;;;;4997005;28;20021;-70
2022/07/16 00:24:20;;;;;;;;;;;9.20;99.90;;;;;;5005955;28;20053;-68
2022/07/16 00:26:48;;;;;;;3.38;1.80;;;9.20;99.90;;;;;;5004799;28;20012;-68
2022/07/16 00:29:18;;;;;;;3.85;2.42;;;9.40;99.90;;;;;;5005392;28;20094;-68
2022/07/16 00:31:47;;;;;;;2.70;1.88;;;9.30;99.90;;;;;;5003495;28;20013;-68
2022/07/16 00:34:15;;;;;;;3.25;2.40;;;9.50;99.90;;;;;;5009469;28;20026;-68
2022/07/16 00:36:43;;;;;;;3.03;2.13;;;9.60;99.90;;;;;;5001687;28;20105;-67
2022/07/16 00:39:11;;;;;;;4.00;2.38;;;9.70;99.90;;;;;;5005498;28;20033;-69
2022/07/16 00:41:39;;;;;;;3.22;2.00;;;9.80;99.90;;;;;;5004554;28;20482;-67
2022/07/16 00:44:09;;;;;;;5.70;2.05;;;9.90;99.90;;;;;;5005935;28;20187;-68
2022/07/16 00:46:38;;;;;;;3.65;2.33;;;10.00;99.90;;;;;;5004465;28;20022;-71
2022/07/16 00:49:06;;;;;;;3.75;1.90;;;10.10;99.90;;;;;;5005526;28;20447;-72
2022/07/16 00:51:35;;;;;;;5.10;2.28;;;10.20;99.90;;;;;;5005240;28;20113;-67
2022/07/16 00:54:03;;;;;;;5.63;2.10;;;10.30;99.90;;;;;;5007818;28;20355;-72
2022/07/16 00:56:31;;;;;;;3.50;1.90;;;10.50;99.90;;;;;;5025190;28;20501;-70
2022/07/16 00:58:58;;;;;;;3.65;1.98;;;10.60;99.90;;;;;;5024771;28;20034;-70
2022/07/16 01:01:26;;;;;;;4.28;2.58;;;10.70;99.90;;;;;;5019361;28;20021;-70
2022/07/16 01:03:53;;;;;;;5.70;1.90;;;10.90;99.90;;;;;;5022331;28;20052;-68
2022/07/16 01:06:22;;;;;;;3.25;1.90;;;11.00;99.90;;;;;;5024085;28;20033;-67
2022/07/16 01:08:50;;;;;;;4.95;2.28;;;11.10;99.90;;;;;;5016044;28;20037;-69
2022/07/16 01:11:19;;;;;;;2.83;1.90;;;11.20;99.90;;;;;;5019296;28;20030;-68
2022/07/16 01:13:49;;;;;;;3.38;2.10;;;11.20;99.90;;;;;;5024048;28;20018;-70
2022/07/16 01:16:18;;;;;;;4.20;2.00;;;11.20;99.90;;;;;;5011461;28;20068;-71
2022/07/16 01:18:46;;;;;;;3.35;2.05;;;11.30;99.90;;;;;;5018927;28;20079;-67
2022/07/16 01:21:14;;;;;;;3.25;2.40;;;11.30;99.90;;;;;;5003575;28;20661;-68
2022/07/16 01:23:42;;;;;;;2.67;2.08;;;11.40;99.90;;;;;;5007060;28;20026;-70
2022/07/16 01:26:09;;;;;;;3.95;2.35;;;11.40;99.90;;;;;;5018645;28;20840;-69
2022/07/16 01:28:37;;;;;;;3.40;2.10;;;11.40;99.90;;;;;;5024707;28;20025;-67
2022/07/16 01:31:04;;;;;;;3.65;2.00;;;11.50;99.90;;;;;;5021750;28;20025;-70
2022/07/16 01:33:33;;;;;;;3.55;1.85;;;11.50;99.90;;;;;;5005357;28;20014;-68
2022/07/16 01:36:07;;;;;;;3.85;2.20;;;11.50;99.90;;;;;;4984320;28;20149;-69
2022/07/16 01:38:37;;;;;;;2.75;1.98;;;11.60;99.90;;;;;;4986361;28;20026;-69
2022/07/16 01:41:04;;;;;;;4.13;2.08;;;11.50;99.80;;;;;;4986004;28;20161;-66
2022/07/16 01:43:32;;;;;;;4.80;2.33;;;11.60;99.90;;;;;;5022306;28;20017;-69
2022/07/16 01:46:00;;;;;;;3.20;1.80;;;11.70;99.80;;;;;;5022525;28;20029;-67
2022/07/16 01:48:27;;;;;;;4.35;1.98;;;11.70;99.90;;;;;;5025257;28;20104;-72
2022/07/16 01:50:55;;;;;;;6.55;4.03;;;11.80;99.90;;;;;;5023940;28;20097;-70
2022/07/16 01:53:23;;;;;;;3.80;2.20;;;11.90;99.90;;;;;;5010671;28;20045;-69
2022/07/16 01:55:51;;;;;;;5.18;2.75;;;12.00;99.10;;;;;;5004268;28;20030;-67
2022/07/16 01:58:18;;;;;;;5.68;2.45;;;12.10;99.00;;;;;;5017571;28;20055;-71
2022/07/16 02:00:47;;;;;;;4.93;3.30;;;12.20;99.30;;;;;;5011387;28;20022;-65
2022/07/16 02:03:15;;;;;;;5.25;2.00;;;12.20;98.90;;;;;;5002997;28;20029;-70
2022/07/16 02:05:43;;;;;;;3.75;2.60;;;12.30;98.30;;;;;;4985662;28;20081;-71
2022/07/16 02:08:12;;;;;;;6.35;3.28;;;12.30;98.40;;;;;;4984058;28;20041;-67
2022/07/16 02:10:39;;;;;;;6.28;2.30;;;12.50;98.60;;;;;;4985043;28;20069;-70
2022/07/16 02:13:07;;;;;;;5.90;2.38;;;12.60;98.90;;;;;;4983977;28;20054;-67
2022/07/16 02:15:35;;;;;;;5.10;2.75;;;12.70;98.40;;;;;;5022722;28;20026;-65
2022/07/16 02:18:03;;;;;;;3.45;2.33;;;12.70;97.80;;;;;;5022564;28;20450;-65
2022/07/16 02:20:31;;;;;;;4.70;2.50;;;12.80;98.20;;;;;;5024737;28;20076;-70
2022/07/16 02:22:58;;;;;;;6.38;3.10;;;12.80;97.60;;;;;;5022692;28;20489;-67
2022/07/16 02:25:26;;;;;;;5.22;2.85;;;12.90;97.40;;;;;;5016196;28;20065;-66
2022/07/16 02:28:08;;;;;;;5.35;2.75;;;12.90;97.30;;;;;;5005116;28;20109;-66
2022/07/16 02:30:45;;;;;;;4.75;2.70;;;13.00;97.30;;;;;;5012557;28;20021;-70
2022/07/16 02:33:15;;;;;;;5.03;3.15;;;13.10;97.50;;;;;;5009906;28;20030;-68
2022/07/16 02:35:43;;;;;;;4.35;3.00;;;13.20;97.40;;;;;;5024046;28;20025;-66
2022/07/16 02:38:11;;;;;;;5.05;2.67;;;13.40;97.70;;;;;;5002693;28;20022;-65
2022/07/16 02:40:40;;;;;;;4.45;2.55;;;13.30;96.60;;;;;;5028890;28;20506;-68
2022/07/16 02:43:09;;;;;;;4.28;2.58;;;13.30;96.80;;;;;;5002405;28;20446;-71
2022/07/16 02:45:38;;;;;;;6.68;2.85;;;13.40;96.60;;;;;;4984147;28;20035;-65
2022/07/16 02:48:06;;;;;;;4.45;3.05;;;13.40;96.90;;;;;;4994343;28;20497;-70
2022/07/16 02:50:33;;;;;;;4.90;3.38;;;13.40;96.40;;;;;;5003483;28;20026;-66
2022/07/16 02:53:01;;;;;;;8.18;3.30;;;13.40;97.00;;;;;;5003468;28;20080;-65
2022/07/16 02:55:28;;;;;;;4.90;2.90;;;13.40;96.90;;;;;;5002911;28;20326;-67
2022/07/16 02:57:56;;;;;;;5.78;3.05;;;13.30;97.10;;;;;;5001369;28;20125;-67
2022/07/16 03:00:25;;;;;;;5.90;3.33;;;13.30;96.70;;;;;;5033829;28;20454;-70
2022/07/16 03:02:52;;;;;;;5.88;2.92;;;13.30;96.50;;;;;;4999631;28;20033;-68
2022/07/16 03:05:20;;;;;;;6.80;2.90;;;13.40;96.70;;;;;;4998485;28;20022;-69
2022/07/16 03:07:47;;;;;;;3.40;2.10;;;13.50;97.10;;;;;;5001816;28;20084;-67
2022/07/16 03:10:15;;;;;;;4.18;2.78;;;13.50;96.90;;;;;;5001698;28;20025;-66
2022/07/16 03:12:42;;;;;;;5.68;2.53;;;13.60;96.60;;;;;;5001675;28;20014;-67
2022/07/16 03:15:12;;;;;;;4.72;3.30;;;13.70;96.30;;;;;;5005271;28;20052;-70
2022/07/16 03:17:42;;;;;;;4.60;3.15;;;13.80;96.60;;;;;;5002078;28;20030;-66
2022/07/16 03:20:12;;;;;;;5.88;3.20;;;13.90;96.20;;;;;;5001494;28;20140;-66
2022/07/16 03:22:44;;;;;;;7.88;5.75;;;14.20;96.10;;;;;;4999933;28;20026;-66
2022/07/16 03:25:12;;;;;;;8.68;4.95;;;14.70;94.90;;;;;;5003139;28;20056;-66
2022/07/16 03:27:39;;;;;;;8.88;5.15;;;15.50;94.40;;;;;;5002403;28;20702;-66
2022/07/16 03:30:08;;;;;;;5.80;3.63;;;16.00;93.20;;;;;;5004229;28;20026;-67
2022/07/16 03:32:35;;;;;;;6.93;4.10;;;16.70;91.00;;;;;;5002107;28;20028;-70
2022/07/16 03:35:09;;;;;;;4.38;2.42;;;16.60;90.00;;;;;;5002720;28;20014;-67
2022/07/16 03:40:22;;;;;;;6.07;2.95;;;17.00;90.30;;;;;;5021973;28;20087;-69
2022/07/16 03:42:50;;;;;;;4.47;2.17;;;17.50;87.90;;;;;;4999443;28;20664;-67
2022/07/16 03:45:17;;;;;;;3.45;1.90;;;18.10;88.80;;;;;;5001865;28;20018;-68
2022/07/16 03:47:45;;;;;;;5.28;2.00;;;19.00;84.00;;;;;;5002588;28;20494;-72
2022/07/16 03:50:12;;;;;;;2.85;1.73;;;19.60;80.90;;;;;;5019643;28;20424;-71
2022/07/16 03:52:40;;;;;;;4.65;1.98;;;19.90;78.10;;;;;;5001152;28;20026;-72
2022/07/16 03:55:08;;;;;;;3.88;2.10;;;20.10;79.00;;;;;;5003531;28;20475;-65
2022/07/16 03:57:35;;;;;;;5.68;2.55;;;20.20;78.00;;;;;;5004025;28;20054;-66
2022/07/16 04:00:03;;;;;;;3.97;2.30;;;20.20;77.10;;;;;;5005289;28;20037;-70
2022/07/16 04:02:30;;;;;;;2.95;2.10;;;20.00;78.10;;;;;;5003101;28;20120;-67
2022/07/16 04:04:58;;;;;;;4.65;2.53;;;19.90;78.60;;;;;;5004700;28;20072;-67
2022/07/16 04:07:25;;;;;;;3.97;2.03;;;19.80;77.60;;;;;;5005111;28;20045;-70
2022/07/16 04:09:52;;;;;;;3.70;2.20;;;19.40;77.30;;;;;;5006621;28;20033;-69
2022/07/16 04:12:23;;;;;;;3.22;2.17;;;19.10;78.60;;;;;;5006993;28;20021;-68
2022/07/16 04:14:52;;;;;;;3.17;1.80;;;18.90;79.80;;;;;;5015300;28;20029;-71
2022/07/16 04:17:19;;;;;;;4.28;2.40;;;19.00;80.30;;;;;;5010062;28;20022;-69
2022/07/16 04:19:47;;;;;;;3.83;2.15;;;18.90;79.10;;;;;;5005972;28;20022;-69
2022/07/16 04:22:14;;;;;;;4.85;2.22;;;18.80;79.60;;;;;;5020351;28;20037;-71
2022/07/16 04:24:42;;;;;;;3.55;1.95;;;18.50;79.70;;;;;;5004063;28;20030;-70
2022/07/16 04:27:09;;;;;;;5.15;2.05;;;18.20;80.90;;;;;;5004850;28;20033;-70
2022/07/16 04:29:36;;;;;;;4.80;2.58;;;17.90;81.10;;;;;;5004373;28;20152;-70
2022/07/16 04:32:04;;;;;;;2.25;1.70;;;17.80;82.60;;;;;;5005719;28;20100;-71
2022/07/16 04:34:31;;;;;;;3.83;2.35;;;17.60;82.20;;;;;;5005460;28;20045;-70
2022/07/16 04:36:59;;;;;;;6.75;2.78;;;17.60;82.70;;;;;;5002832;28;20017;-70
2022/07/16 04:39:26;;;;;;;2.95;1.83;;;17.50;83.10;;;;;;5002564;28;20076;-70
2022/07/16 04:41:53;;;;;;;2.53;1.80;;;17.20;84.10;;;;;;5002413;28;20474;-68
2022/07/16 04:44:21;;;;;;;3.05;1.90;;;17.10;84.90;;;;;;5003159;28;20022;-70
2022/07/16 04:46:48;;;;;;;4.60;2.78;;;16.90;85.80;;;;;;5003023;28;20034;-70
2022/07/16 04:49:15;;;;;;;3.78;2.00;;;16.80;86.10;;;;;;5022035;28;20046;-71
2022/07/16 04:51:43;;;;;;;2.17;1.67;;;16.60;87.30;;;;;;4998356;28;20021;-67
2022/07/16 04:54:10;;;;;;;4.05;2.15;;;16.50;88.20;;;;;;5004892;28;20036;-72
2022/07/16 04:56:37;;;;;;;2.92;2.00;;;16.40;87.80;;;;;;5005775;28;20057;-72
2022/07/16 04:59:04;;;;;;;3.25;2.40;;;16.30;88.70;;;;;;5025629;28;20093;-70
2022/07/16 05:01:32;;;;;;;4.57;2.78;;;16.30;89.60;;;;;;5020001;28;20029;-70
2022/07/16 05:03:59;;;;;;;3.10;2.10;;;16.30;90.20;;;;;;5001348;28;20032;-69
2022/07/16 05:06:27;;;;;;;2.90;2.00;;;16.30;90.60;;;;;;5003386;28;20041;-71
2022/07/16 05:08:56;;;;;;;3.22;1.75;;;16.10;90.20;;;;;;5001446;28;20025;-71
2022/07/16 05:11:24;;;;;;;3.85;2.03;;;16.10;90.60;;;;;;5003676;28;20375;-72
2022/07/16 05:13:54;;;;;;;2.20;1.67;;;16.00;90.50;;;;;;5002856;28;20072;-69
2022/07/16 05:16:22;;;;;;;3.55;1.90;;;15.90;91.00;;;;;;5003613;28;20174;-72
2022/07/16 05:18:50;;;;;;;3.63;2.28;;;15.80;91.60;;;;;;5002740;28;20025;-68
2022/07/16 05:21:18;;;;;;;5.35;2.13;;;15.70;92.10;;;;;;5004124;28;20056;-70
2022/07/16 05:23:45;;;;;;;3.10;2.03;;;15.60;92.40;;;;;;5002199;28;20014;-68
2022/07/16 05:26:12;;;;;;;3.40;1.88;;;15.50;92.50;;;;;;5003498;28;20037;-70
2022/07/16 05:28:39;;;;;;;3.42;2.47;;;15.50;93.20;;;;;;4998785;28;20032;-69
2022/07/16 05:31:07;;;;;;;3.00;2.08;;;15.40;93.70;;;;;;5003703;28;20030;-70
2022/07/16 05:33:34;;;;;;;6.07;2.78;;;15.30;94.40;;;;;;5002081;28;20108;-69
2022/07/16 05:36:02;;;;;;;3.50;2.40;;;15.20;95.30;;;;;;5003232;28;20107;-70
2022/07/16 05:38:29;;;;;;;5.88;2.10;;;15.20;95.60;;;;;;5001900;28;20024;-69
2022/07/16 05:40:56;;;;;;;4.50;3.00;;;15.10;96.10;;;;;;5000871;28;20053;-69
2022/07/16 05:43:23;;;;;;;6.38;2.67;;;15.00;96.40;;;;;;5002011;28;20620;-70
2022/07/16 05:45:51;;;;;;;3.72;2.10;;;14.90;96.70;;;;;;5004916;28;20482;-70
2022/07/16 05:48:18;;;;;;;5.05;2.85;;;14.80;97.40;;;;;;5000157;28;20060;-70
2022/07/16 05:50:45;;;;;;;5.47;2.55;;;14.70;97.90;;;;;;5002614;28;20022;-71
2022/07/16 05:53:13;;;;;;;6.30;3.28;;;14.60;98.30;;;;;;5001606;28;20014;-68
2022/07/16 05:55:40;;;;;;;7.07;3.65;;;14.50;98.90;;;;;;5002482;28;20038;-69
2022/07/16 05:58:08;;;;;;;6.28;3.75;;;14.40;99.30;;;;;;5004434;28;20189;-68
2022/07/16 06:00:35;;;;;;;5.25;3.08;;;14.30;99.60;;;;;;5003750;28;20091;-72
2022/07/16 06:03:02;;;;;;;6.40;4.15;;;14.20;99.90;;;;;;5001947;28;20421;-68
2022/07/16 06:05:30;;;;;;;6.03;4.05;;;14.10;99.90;;;;;;5002474;28;20068;-70
2022/07/16 06:07:57;;;;;;;7.03;4.25;;;14.00;99.90;;;;;;5001953;28;20030;-70
2022/07/16 06:10:24;;;;;;;54.67;39.90;;;14.00;99.90;;;;;;5002581;28;20225;-71
2022/07/16 06:12:52;;;;;;;10.32;7.55;;;13.90;99.90;;;;;;5002045;28;20025;-70
2022/07/16 06:15:19;;;;;;;8.15;5.30;;;13.90;99.90;;;;;;5003059;28;20021;-70
2022/07/16 06:17:46;;;;;;;7.18;4.82;;;13.70;99.90;;;;;;5001930;28;20026;-69
2022/07/16 06:20:14;;;;;;;8.02;4.47;;;13.70;99.90;;;;;;4999447;28;20076;-70
2022/07/16 06:22:41;;;;;;;8.00;4.28;;;13.70;99.90;;;;;;5000312;28;20108;-70
2022/07/16 06:25:08;;;;;;;5.85;4.40;;;13.60;99.90;;;;;;5001711;28;20418;-69
2022/07/16 06:27:40;;;;;;;6.68;3.95;;;13.50;99.90;;;;;;4999528;28;20018;-68
2022/07/16 06:30:08;;;;;;;6.57;4.60;;;13.40;99.90;;;;;;5003253;28;20014;-70
2022/07/16 06:32:35;;;;;;;6.82;4.07;;;13.40;99.90;;;;;;5004672;28;20037;-70
2022/07/16 06:35:02;;;;;;;7.15;4.32;;;13.40;99.90;;;;;;5000166;28;20084;-69
2022/07/16 06:37:30;;;;;;;7.10;4.60;;;13.30;99.90;;;;;;5002238;28;20100;-70
2022/07/16 06:39:58;;;;;;;6.38;4.35;;;13.30;99.90;;;;;;5001885;28;20033;-70
2022/07/16 06:42:25;;;;;;;13.57;5.22;;;13.20;99.90;;;;;;5004698;28;20025;-70
2022/07/16 06:44:52;;;;;;;6.10;3.90;;;13.20;99.90;;;;;;5002204;28;20383;-71
2022/07/16 06:47:19;;;;;;;8.38;3.97;;;13.10;99.90;;;;;;5002459;28;20045;-70
2022/07/16 06:49:47;;;;;;;6.13;4.22;;;13.00;99.90;;;;;;5002555;28;20018;-69
2022/07/16 06:52:14;;;;;;;6.53;4.30;;;13.00;99.90;;;;;;5002735;28;20112;-70
2022/07/16 06:54:41;;;;;;;10.15;5.97;;;12.90;99.90;;;;;;5003231;28;20161;-69
2022/07/16 06:57:09;;;;;;;7.75;4.82;;;12.80;99.90;;;;;;5002207;28;20045;-71
2022/07/16 06:59:36;;;;;;;10.73;5.35;;;12.80;99.90;;;;;;5003221;28;20113;-69
2022/07/16 07:02:03;;;;;;;9.93;4.85;;;12.70;99.90;;;;;;5002194;28;20115;-69
2022/07/16 07:04:31;;;;;;;6.60;4.28;;;12.70;99.90;;;;;;5002769;28;20057;-69
2022/07/16 07:06:58;;;;;;;8.95;4.60;;;12.60;99.90;;;;;;5001625;28;20096;-70
2022/07/16 07:09:25;;;;;;;7.82;5.60;;;12.70;99.90;;;;;;5000947;28;20018;-73
2022/07/16 07:11:52;;;;;;;9.73;5.47;;;12.70;99.90;;;;;;5000664;28;20707;-70
2022/07/16 07:14:20;;;;;;;8.40;4.85;;;12.60;99.90;;;;;;5000458;28;20017;-71
2022/07/16 07:16:47;;;;;;;9.02;4.93;;;12.60;99.90;;;;;;5001413;28;20037;-70
2022/07/16 07:19:14;;;;;;;7.47;4.75;;;12.60;99.90;;;;;;5001276;28;20022;-71
2022/07/16 07:21:42;;;;;;;6.95;4.72;;;12.50;99.90;;;;;;5001076;28;20026;-71
2022/07/16 07:24:09;;;;;;;7.25;4.55;;;12.50;99.90;;;;;;5001784;28;20049;-69
2022/07/16 07:26:36;;;;;;;8.88;4.72;;;12.50;99.90;;;;;;5002597;28;20120;-70
2022/07/16 07:29:03;;;;;;;8.60;5.20;;;12.40;99.90;;;;;;5002455;28;20017;-68
2022/07/16 07:31:31;;;;;;;6.25;4.88;;;12.40;99.90;;;;;;5002448;28;20053;-71
2022/07/16 07:33:58;;;;;;;13.60;10.25;;;12.30;99.90;;;;;;5001498;28;20026;-70
2022/07/16 07:36:25;;;;;;;19.40;16.52;;;12.30;99.90;;;;;;5002550;28;20037;-69
2022/07/16 07:38:53;;;;;;;18.65;16.67;;;12.20;99.90;;;;;;5002501;28;20022;-73
2022/07/16 07:41:20;;;;;;;20.35;15.73;;;12.20;99.90;;;;;;5001844;28;20095;-72
2022/07/16 07:43:47;;;;;;;18.42;14.57;;;12.20;99.90;;;;;;4999151;28;20018;-72
2022/07/16 07:46:14;;;;;;;14.70;12.65;;;12.20;99.90;;;;;;5001951;28;20552;-72
2022/07/16 07:48:42;;;;;;;16.77;13.77;;;12.10;99.90;;;;;;5001740;28;20030;-72
2022/07/16 07:51:10;;;;;;;14.48;12.18;;;12.10;99.90;;;;;;5002543;28;20415;-72
2022/07/16 07:53:37;;;;;;;15.77;13.80;;;12.10;99.90;;;;;;5001959;28;20422;-73
2022/07/16 07:56:05;;;;;;;23.83;21.27;;;12.00;99.90;;;;;;5002301;28;20378;-72
2022/07/16 07:58:34;;;;;;;26.13;21.92;;;12.00;99.90;;;;;;5014669;28;20041;-71
2022/07/16 08:01:01;;;;;;;15.75;13.63;;;11.90;99.90;;;;;;5014322;28;20167;-73
2022/07/16 08:03:29;;;;;;;14.95;11.88;;;11.90;99.90;;;;;;5011897;28;20026;-73
2022/07/16 08:05:56;;;;;;;14.45;11.70;;;11.90;99.90;;;;;;5018337;28;20540;-73
2022/07/16 08:08:24;;;;;;;17.58;15.63;;;11.90;99.90;;;;;;5014498;28;20034;-73
2022/07/16 08:10:51;;;;;;;18.73;14.32;;;11.90;99.90;;;;;;5021878;28;20025;-73
2022/07/16 08:13:18;;;;;;;18.60;12.27;;;11.90;99.90;;;;;;5013929;28;20034;-73
2022/07/16 08:15:46;;;;;;;14.07;12.10;;;11.80;99.90;;;;;;5002159;28;20029;-72
2022/07/16 08:18:14;;;;;;;14.18;11.63;;;11.80;99.90;;;;;;5001567;28;20029;-73
2022/07/16 08:20:41;;;;;;;14.45;12.70;;;11.70;99.90;;;;;;5002096;28;20714;-73
2022/07/16 08:23:08;;;;;;;16.35;13.43;;;11.70;99.90;;;;;;5001689;28;20030;-72
2022/07/16 08:25:45;;;;;;;16.63;13.82;;;11.70;99.90;;;;;;5001742;28;20062;-72
2022/07/16 08:28:14;;;;;;;19.10;15.23;;;11.70;99.90;;;;;;5001699;28;20491;-72
2022/07/16 08:30:42;;;;;;;18.95;15.05;;;11.70;99.90;;;;;;5002029;28;20136;-71
2022/07/16 08:33:09;;;;;;;18.63;13.77;;;11.60;99.90;;;;;;5004686;28;20034;-73
2022/07/16 08:35:37;;;;;;;17.20;14.13;;;11.60;99.90;;;;;;5016828;28;20022;-71
2022/07/16 08:38:04;;;;;;;16.80;15.10;;;11.60;99.90;;;;;;4999371;28;20037;-71
2022/07/16 08:40:34;;;;;;;18.73;14.63;;;11.60;99.90;;;;;;5003398;28;20049;-71
2022/07/16 08:43:02;;;;;;;17.80;14.65;;;11.60;99.90;;;;;;5001862;28;20021;-72
2022/07/16 08:45:30;;;;;;;16.85;13.75;;;11.60;99.90;;;;;;5000404;28;20096;-71
2022/07/16 08:47:58;;;;;;;15.43;13.82;;;11.50;99.90;;;;;;5005993;28;20418;-71
2022/07/16 08:50:25;;;;;;;18.30;13.35;;;11.50;99.90;;;;;;5003310;28;20141;-69
2022/07/16 08:52:56;;;;;;;15.75;13.45;;;11.50;99.90;;;;;;5025035;28;20026;-70
2022/07/16 08:55:27;;;;;;;15.00;12.80;;;11.40;99.90;;;;;;5004426;28;20026;-68
2022/07/16 08:57:57;;;;;;;17.75;12.93;;;11.40;99.90;;;;;;5018350;28;20049;-68
2022/07/16 09:00:25;;;;;;;17.77;12.38;;;11.40;99.90;;;;;;5006377;28;20026;-67
2022/07/16 09:02:53;;;;;;;16.45;11.50;;;11.40;99.90;;;;;;5010042;28;20501;-70
2022/07/16 09:05:20;;;;;;;16.52;13.15;;;11.40;99.90;;;;;;5016650;28;20721;-70
2022/07/16 09:07:47;;;;;;;13.35;10.82;;;11.30;99.90;;;;;;5014794;28;20560;-72
2022/07/16 09:10:15;;;;;;;16.92;11.88;;;11.30;99.90;;;;;;5004134;28;20030;-68
2022/07/16 09:12:47;;;;;;;15.82;11.55;;;11.30;99.90;;;;;;5005390;28;20492;-70
2022/07/16 09:15:33;;;;;;;14.80;11.55;;;11.20;99.90;;;;;;5009761;28;20040;-70
2022/07/16 09:18:17;;;;;;;16.00;12.80;;;11.30;99.90;;;;;;5005332;28;20520;-70
2022/07/16 09:20:48;;;;;;;17.48;12.48;;;11.30;99.90;;;;;;5002548;28;20029;-69
2022/07/16 09:23:31;;;;;;;19.90;14.55;;;11.30;99.90;;;;;;5003624;28;20025;-70
2022/07/16 09:38:09;;;;;;;14.98;10.50;;;11.40;99.90;;;;;;5002926;28;20029;-67
2022/07/16 09:40:40;;;;;;;12.75;9.55;;;11.40;99.90;;;;;;5009037;28;20021;-67
2022/07/16 09:43:14;;;;;;;11.27;9.33;;;11.50;99.90;;;;;;5016792;28;20036;-68
2022/07/16 09:45:43;;;;;;;10.18;7.57;;;11.60;99.90;;;;;;5023914;28;20261;-67
2022/07/16 09:48:26;;;;;;;10.35;7.85;;;11.70;99.90;;;;;;5003421;28;20063;-67
2022/07/16 09:50:55;;;;;;;7.75;5.63;;;11.70;99.90;;;;;;5004155;28;20026;-68
2022/07/16 09:53:25;;;;;;;9.45;5.82;;;11.80;99.90;;;;;;5005881;28;20845;-67
2022/07/16 09:56:22;;;;;;;6.22;4.40;;;11.90;99.90;;;;;;5004680;28;20026;-68
2022/07/16 09:58:55;;;;;;;6.75;3.90;;;12.00;99.60;;;;;;5007812;28;20042;-68
2022/07/16 10:01:23;;;;;;;6.25;3.10;;;12.10;99.20;;;;;;5003490;28;20513;-69
2022/07/16 10:03:51;;;;;;;4.63;2.95;;;12.20;97.90;;;;;;5009530;28;20109;-69
2022/07/16 10:06:19;;;;;;;2.75;2.15;;;12.20;97.80;;;;;;5002934;28;20045;-68
2022/07/16 10:08:46;;;;;;;2.83;1.50;;;12.30;96.50;;;;;;5003205;28;20014;-70
2022/07/16 10:11:14;;;;;;;2.25;1.70;;;12.40;95.30;;;;;;4999098;28;20029;-68
2022/07/16 10:13:44;;;;;;;1.60;1.33;;;12.60;94.80;;;;;;5002658;28;20478;-68
2022/07/16 10:16:12;;;;;;;1.75;1.60;;;12.60;94.20;;;;;;5003889;28;20026;-69
2022/07/16 10:18:45;;;;;;;3.25;1.50;;;12.70;93.80;;;;;;5001969;28;20026;-66
2022/07/16 10:21:14;;;;;;;2.15;1.10;;;12.80;93.50;;;;;;5003746;28;20385;-67
2022/07/16 10:23:44;;;;;;;1.92;1.20;;;12.80;93.30;;;;;;5002929;28;20041;-69
2022/07/16 10:26:19;;;;;;;1.63;1.13;;;12.80;93.20;;;;;;5002171;28;20038;-67
2022/07/16 10:28:55;;;;;;;2.58;1.25;;;12.90;92.40;;;;;;5001526;28;20037;-68
2022/07/16 10:31:32;;;;;;;10.85;2.70;;;13.00;92.30;;;;;;5001615;28;20501;-69
2022/07/16 10:34:14;;;;;;;1.98;1.42;;;13.00;92.10;;;;;;5005369;28;20113;-67
2022/07/16 10:36:50;;;;;;;1.88;1.40;;;13.10;91.80;;;;;;4999381;28;20021;-70
2022/07/16 10:39:18;;;;;;;2.22;1.55;;;13.10;91.90;;;;;;5005806;28;20022;-70
2022/07/16 10:41:52;;;;;;;2.60;1.67;;;13.10;91.70;;;;;;5004161;28;20024;-70
2022/07/16 10:44:22;;;;;;;2.55;1.27;;;13.10;91.90;;;;;;5002050;28;20022;-70
2022/07/16 10:47:03;;;;;;;1.88;1.30;;;13.10;91.90;;;;;;5002521;28;20033;-70
2022/07/16 10:49:32;;;;;;;2.10;1.30;;;13.10;91.70;;;;;;5004450;28;20022;-69
2022/07/16 10:51:59;;;;;;;1.95;1.27;;;13.10;91.70;;;;;;5003193;28;20514;-70
2022/07/16 10:54:29;;;;;;;2.28;1.33;;;13.00;91.60;;;;;;5000876;28;20034;-70
2022/07/16 10:57:01;;;;;;;2.22;1.63;;;13.10;91.40;;;;;;5003169;28;20123;-70
2022/07/16 10:59:34;;;;;;;1.48;1.02;;;13.10;91.50;;;;;;4999230;28;20056;-71
2022/07/16 11:02:05;;;;;;;3.20;1.65;;;13.10;91.40;;;;;;5000993;28;20045;-70
2022/07/16 11:04:33;;;;;;;1.95;1.35;;;13.10;91.40;;;;;;5001984;28;20164;-70
2022/07/16 11:07:03;;;;;;;1.95;1.30;;;13.10;91.50;;;;;;4998139;28;20124;-71
2022/07/16 11:09:33;;;;;;;2.35;1.45;;;13.00;91.50;;;;;;5000219;28;20482;-70
2022/07/16 11:12:17;;;;;;;1.98;1.45;;;13.10;91.50;;;;;;5003354;28;20026;-71
2022/07/16 11:14:49;;;;;;;2.28;1.45;;;13.00;91.70;;;;;;4999743;28;20097;-71
2022/07/16 11:17:21;;;;;;;2.67;2.25;;;13.00;91.70;;;;;;5003584;28;20017;-69
2022/07/16 11:19:52;;;;;;;2.88;2.28;;;13.00;91.80;;;;;;5000602;28;20120;-71
2022/07/16 11:22:22;;;;;;;3.45;2.47;;;13.00;91.80;;;;;;5000817;28;20105;-69
2022/07/16 11:24:53;;;;;;;3.78;2.28;;;13.00;91.80;;;;;;5000568;28;20022;-72
2022/07/16 11:27:41;;;;;;;2.40;1.95;;;13.00;92.10;;;;;;5001437;28;20573;-71
2022/07/16 11:30:12;;;;;;;4.22;2.63;;;12.90;92.40;;;;;;5001219;28;20648;-74
2022/07/16 11:32:47;;;;;;;2.35;1.67;;;12.90;92.20;;;;;;5002821;28;20372;-71
2022/07/16 11:35:16;;;;;;;3.13;1.67;;;12.90;92.40;;;;;;4998921;28;20028;-71
2022/07/16 11:38:09;;;;;;;2.95;1.77;;;12.90;92.50;;;;;;5000477;28;20026;-71
2022/07/16 11:40:36;;;;;;;;;;;12.80;92.70;;;;;;5000069;28;20084;-69
2022/07/16 11:43:04;;;;;;;4.10;1.88;;;12.80;92.70;;;;;;5003205;28;20432;-69
2022/07/16 11:45:42;;;;;;;2.30;1.73;;;12.90;92.80;;;;;;5000025;28;20030;-69
2022/07/16 11:48:19;;;;;;;1.30;1.02;;;12.80;92.90;;;;;;5001671;28;20562;-70
2022/07/16 11:50:47;;;;;;;2.95;1.90;;;12.70;93.10;;;;;;5000322;28;20033;-69
2022/07/16 11:53:26;;;;;;;2.85;1.70;;;12.60;93.30;;;;;;5002062;28;20026;-71
2022/07/16 11:55:54;;;;;;;2.20;1.67;;;12.60;93.80;;;;;;5000765;28;20087;-71
2022/07/16 11:58:21;;;;;;;2.67;1.58;;;12.40;93.60;;;;;;5001094;28;20045;-69
2022/07/16 12:00:49;;;;;;;2.40;1.33;;;12.40;93.70;;;;;;5002246;28;20018;-72
2022/07/16 12:03:18;;;;;;;2.13;1.58;;;12.30;93.90;;;;;;4999584;28;20175;-71
2022/07/16 12:05:46;;;;;;;1.80;1.23;;;12.30;94.00;;;;;;4990063;28;20045;-70
2022/07/16 12:08:14;;;;;;;2.70;2.05;;;12.30;94.00;;;;;;5027209;28;20034;-71
2022/07/16 12:10:42;;;;;;;2.92;1.40;;;12.20;94.20;;;;;;5020041;28;20359;-72
2022/07/16 12:13:10;;;;;;;2.17;1.40;;;12.10;94.20;;;;;;4981301;28;20476;-70
2022/07/16 12:15:55;;;;;;;2.47;1.20;;;12.10;94.30;;;;;;4998526;28;20028;-69
2022/07/16 12:18:23;;;;;;;3.22;1.20;;;12.00;94.40;;;;;;5001297;28;20049;-68
2022/07/16 12:20:51;;;;;;;2.03;1.48;;;12.00;94.50;;;;;;5007409;28;20052;-68
2022/07/16 12:23:34;;;;;;;2.75;1.60;;;12.00;94.70;;;;;;5026215;28;20033;-69
2022/07/16 12:26:03;;;;;;;1.92;1.52;;;11.90;94.70;;;;;;5025003;28;20461;-69
2022/07/16 12:28:31;;;;;;;3.05;1.63;;;11.90;94.90;;;;;;5026549;28;20584;-69
2022/07/16 12:31:16;;;;;;;1.80;1.30;;;11.90;95.10;;;;;;5019869;28;20034;-70
2022/07/16 12:33:53;;;;;;;1.23;1.00;;;11.80;95.30;;;;;;5005618;28;20437;-69
2022/07/16 12:36:20;;;;;;;2.00;1.52;;;11.70;95.40;;;;;;5023485;28;20025;-68
2022/07/16 12:38:56;;;;;;;1.98;1.10;;;11.80;95.50;;;;;;5023901;28;20025;-68
2022/07/16 12:41:42;;;;;;;2.13;1.40;;;11.70;95.40;;;;;;5014635;28;20026;-69
2022/07/16 12:44:13;;;;;;;1.65;1.30;;;11.80;95.60;;;;;;5005590;28;20030;-68
2022/07/16 12:46:46;;;;;;;1.98;1.25;;;11.70;95.60;;;;;;5004172;28;20030;-69
2022/07/16 12:49:17;;;;;;;1.60;1.20;;;11.80;95.60;;;;;;5000184;28;20022;-68
2022/07/16 12:51:51;;;;;;;2.65;1.48;;;11.80;95.70;;;;;;5003791;28;20023;-68
2022/07/16 12:54:21;;;;;;;5.78;1.15;;;11.80;95.80;;;;;;5003324;28;20024;-69
2022/07/16 12:59:34;;;;;;;2.38;1.00;;;11.80;95.70;;;;;;5005639;28;20029;-70
2022/07/16 13:02:05;;;;;;;1.70;1.05;;;11.80;95.90;;;;;;5002815;28;20034;-70
2022/07/16 13:04:32;;;;;;;1.23;0.98;;;11.90;95.90;;;;;;5005308;28;20085;-70
2022/07/16 13:07:00;;;;;;;1.52;1.05;;;11.80;95.90;;;;;;5004389;28;20057;-69
2022/07/16 13:09:27;;;;;;;2.28;1.23;;;11.90;96.00;;;;;;5005569;28;20026;-69
2022/07/16 13:11:55;;;;;;;2.53;1.48;;;11.80;96.20;;;;;;5003436;28;20550;-71
2022/07/16 13:14:23;;;;;;;1.77;1.08;;;11.90;96.30;;;;;;5004409;28;20018;-70